Time;durP1;ratioP1;P1;durP2;ratioP2;P2;SDS_P1;SDS_P2;PMS_P1;PMS_P2;Temp;Humidity;BMP_temperature;BMP_pressure;BME280_temperature;BME280_humidity;BME280_pressure;Samples;Min_cycle;Max_cycle;Signal;HPM_P1;HPM_P2
2022/05/08 00:00:11;;;;;;;11.95;2.75;;;10.30;96.70;;;;;;5019614;28;20053;-75
2022/05/08 00:02:38;;;;;;;12.80;3.15;;;10.40;96.60;;;;;;5024181;28;20041;-76
2022/05/08 00:05:07;;;;;;;8.45;2.88;;;10.30;96.60;;;;;;5033985;28;20025;-73
2022/05/08 00:07:33;;;;;;;18.27;2.88;;;10.30;96.70;;;;;;5016350;28;20037;-74
2022/05/08 00:09:59;;;;;;;13.27;2.47;;;10.30;96.70;;;;;;5032218;28;20035;-75
2022/05/08 00:12:24;;;;;;;17.17;3.20;;;10.30;96.80;;;;;;4994083;28;20029;-77
2022/05/08 00:14:50;;;;;;;10.68;2.47;;;10.30;96.80;;;;;;4997017;28;20029;-75
2022/05/08 00:17:16;;;;;;;12.20;2.80;;;10.30;96.90;;;;;;5032477;28;20033;-74
2022/05/08 00:19:43;;;;;;;9.00;2.55;;;10.20;96.90;;;;;;5014346;28;20075;-73
2022/05/08 00:22:10;;;;;;;12.73;2.53;;;10.20;96.90;;;;;;5039156;28;20026;-77
2022/05/08 00:24:36;;;;;;;11.77;2.67;;;10.10;97.00;;;;;;5033496;28;20025;-71
2022/05/08 00:27:02;;;;;;;12.50;2.92;;;10.10;97.10;;;;;;5020392;28;20029;-77
2022/05/08 00:29:29;;;;;;;12.70;2.30;;;10.10;97.10;;;;;;5004411;28;20055;-74
2022/05/08 00:31:54;;;;;;;11.00;2.92;;;10.10;97.20;;;;;;5036473;28;20407;-74
2022/05/08 00:34:20;;;;;;;10.40;2.63;;;10.10;97.30;;;;;;5039076;28;20033;-74
2022/05/08 00:36:46;;;;;;;10.55;2.30;;;10.00;97.30;;;;;;5015779;28;20030;-76
2022/05/08 00:39:12;;;;;;;11.13;2.40;;;10.00;97.30;;;;;;5016817;28;20052;-76
2022/05/08 00:41:38;;;;;;;18.50;2.72;;;10.00;97.40;;;;;;5034474;28;20021;-76
2022/05/08 00:44:04;;;;;;;11.95;2.50;;;10.00;97.40;;;;;;5018382;28;20047;-76
2022/05/08 00:46:30;;;;;;;12.43;2.65;;;9.90;97.40;;;;;;4995843;28;20029;-76
2022/05/08 00:48:57;;;;;;;14.55;3.03;;;9.90;97.50;;;;;;5017881;28;20515;-76
2022/05/08 00:51:26;;;;;;;8.18;2.83;;;9.90;97.60;;;;;;5018442;28;20101;-77
2022/05/08 00:53:56;;;;;;;8.43;2.50;;;9.90;97.50;;;;;;5035421;28;20025;-77
2022/05/08 00:56:22;;;;;;;7.78;2.22;;;9.90;97.60;;;;;;4998196;28;20088;-73
2022/05/08 00:58:50;;;;;;;12.35;2.70;;;9.80;97.70;;;;;;5001505;28;20061;-77
2022/05/08 01:01:17;;;;;;;8.55;2.95;;;9.70;97.70;;;;;;5033765;28;20074;-76
2022/05/08 01:03:43;;;;;;;16.70;3.47;;;9.70;97.80;;;;;;5016315;28;20037;-74
2022/05/08 01:06:18;;;;;;;10.55;2.63;;;9.70;97.90;;;;;;5031620;28;20489;-74
2022/05/08 01:08:46;;;;;;;14.98;4.10;;;9.60;98.00;;;;;;5016903;28;20493;-73
2022/05/08 01:11:12;;;;;;;12.73;2.33;;;9.60;98.10;;;;;;5000441;28;20035;-77
2022/05/08 01:13:42;;;;;;;12.52;2.97;;;9.60;98.20;;;;;;5036241;28;20040;-75
2022/05/08 01:16:09;;;;;;;15.32;3.08;;;9.50;98.20;;;;;;5033931;28;20087;-73
2022/05/08 01:18:35;;;;;;;15.00;3.80;;;9.50;98.40;;;;;;5030793;28;20087;-74
2022/05/08 01:21:01;;;;;;;14.15;2.92;;;9.50;98.50;;;;;;5033572;28;20057;-73
2022/05/08 01:23:27;;;;;;;6.78;2.53;;;9.50;98.50;;;;;;5019235;28;20120;-77
2022/05/08 01:25:57;;;;;;;10.73;2.78;;;9.40;98.50;;;;;;5018302;28;20027;-76
2022/05/08 01:28:25;;;;;;;14.85;3.05;;;9.40;98.60;;;;;;5038531;28;20040;-74
2022/05/08 01:30:53;;;;;;;10.27;3.35;;;9.40;98.70;;;;;;5017114;28;20126;-75
2022/05/08 01:33:20;;;;;;;12.07;2.58;;;9.40;98.70;;;;;;5022552;28;20021;-74
2022/05/08 01:35:46;;;;;;;11.02;2.63;;;9.40;98.80;;;;;;4999987;28;20025;-74
2022/05/08 01:38:13;;;;;;;13.40;3.00;;;9.30;98.90;;;;;;5022151;28;20033;-75
2022/05/08 01:40:40;;;;;;;12.10;3.28;;;9.30;98.90;;;;;;5018436;28;20449;-76
2022/05/08 01:43:06;;;;;;;13.30;2.90;;;9.30;99.00;;;;;;5018827;28;20037;-76
2022/05/08 01:45:33;;;;;;;12.80;3.03;;;9.30;99.00;;;;;;5036657;28;20079;-75
2022/05/08 01:50:44;;;;;;;12.85;3.45;;;9.20;99.10;;;;;;5036980;28;20029;-74
2022/05/08 01:53:10;;;;;;;12.02;3.05;;;9.20;99.20;;;;;;5039145;28;20136;-74
2022/05/08 01:55:36;;;;;;;19.58;3.85;;;9.20;99.30;;;;;;5016929;28;20030;-73
2022/05/08 01:58:02;;;;;;;9.98;2.80;;;9.10;99.40;;;;;;5033966;28;20063;-76
2022/05/08 02:00:29;;;;;;;11.32;3.40;;;9.10;99.40;;;;;;5037957;28;20040;-74
2022/05/08 02:02:59;;;;;;;13.15;3.47;;;9.10;99.50;;;;;;5039686;28;20485;-77
2022/05/08 02:05:24;;;;;;;10.88;3.22;;;9.10;99.70;;;;;;5014554;28;20044;-74
2022/05/08 02:07:50;;;;;;;14.13;3.53;;;9.00;99.60;;;;;;5019707;28;20021;-73
2022/05/08 02:10:17;;;;;;;12.75;3.88;;;9.00;99.80;;;;;;5017517;28;20034;-73
2022/05/08 02:12:44;;;;;;;10.38;3.40;;;9.00;99.80;;;;;;5035809;28;20060;-73
2022/05/08 02:15:12;;;;;;;14.07;3.28;;;8.90;99.90;;;;;;5037084;28;20033;-76
2022/05/08 02:17:39;;;;;;;12.70;3.50;;;8.90;99.90;;;;;;5019498;28;20445;-75
2022/05/08 02:20:06;;;;;;;9.95;2.55;;;8.90;99.90;;;;;;5035463;28;20033;-74
2022/05/08 02:22:33;;;;;;;9.82;2.90;;;8.90;99.90;;;;;;5020829;28;20026;-76
2022/05/08 02:24:58;;;;;;;12.70;3.65;;;8.80;99.90;;;;;;5019641;28;20039;-76
2022/05/08 02:27:24;;;;;;;16.73;3.83;;;8.80;99.90;;;;;;4996736;28;20025;-75
2022/05/08 02:29:51;;;;;;;15.57;3.80;;;8.90;99.90;;;;;;5014510;28;20504;-76
2022/05/08 02:32:18;;;;;;;9.93;2.95;;;8.80;99.90;;;;;;5038426;28;20192;-76
2022/05/08 02:34:45;;;;;;;11.55;3.28;;;8.80;99.90;;;;;;5031782;28;20088;-77
2022/05/08 02:37:11;;;;;;;12.35;3.08;;;8.80;99.90;;;;;;5037647;28;20045;-73
2022/05/08 02:39:37;;;;;;;15.60;3.90;;;8.80;99.90;;;;;;5035132;28;20476;-76
2022/05/08 02:42:03;;;;;;;18.67;3.63;;;8.70;99.90;;;;;;5001438;28;20045;-73
2022/05/08 02:44:29;;;;;;;12.07;3.60;;;8.70;99.90;;;;;;5018026;28;20032;-74
2022/05/08 02:46:54;;;;;;;10.05;3.00;;;8.70;99.90;;;;;;5002494;28;20025;-73
2022/05/08 02:49:20;;;;;;;12.50;3.35;;;8.60;99.90;;;;;;5017405;28;20585;-73
2022/05/08 02:51:45;;;;;;;11.88;2.88;;;8.70;99.90;;;;;;5039648;28;20083;-76
2022/05/08 02:54:11;;;;;;;10.95;2.95;;;8.60;99.90;;;;;;5039756;28;20727;-72
2022/05/08 02:59:21;;;;;;;14.25;3.35;;;8.60;99.90;;;;;;5018412;28;20057;-74
2022/05/08 03:01:46;;;;;;;14.20;3.75;;;8.60;99.90;;;;;;5019833;28;20087;-76
2022/05/08 03:04:12;;;;;;;11.55;3.40;;;8.50;99.90;;;;;;5019323;28;20111;-77
2022/05/08 03:06:39;;;;;;;12.68;2.92;;;8.50;99.90;;;;;;5016348;28;20456;-77
2022/05/08 03:09:05;;;;;;;11.15;3.28;;;8.50;99.90;;;;;;5034176;28;20950;-74
2022/05/08 03:11:32;;;;;;;8.45;3.03;;;8.50;99.90;;;;;;5032575;28;20111;-73
2022/05/08 03:13:59;;;;;;;10.45;3.17;;;8.40;99.90;;;;;;5030319;28;20061;-73
2022/05/08 03:16:27;;;;;;;12.23;3.45;;;8.30;99.90;;;;;;5015935;28;20029;-77
2022/05/08 03:18:55;;;;;;;8.75;3.13;;;8.30;99.90;;;;;;5014856;28;20047;-73
2022/05/08 03:21:22;;;;;;;14.52;3.72;;;8.30;99.90;;;;;;5035366;28;20303;-76
2022/05/08 03:23:48;;;;;;;13.73;4.20;;;8.30;99.90;;;;;;5015548;28;20636;-73
2022/05/08 03:26:15;;;;;;;10.32;3.33;;;8.30;99.90;;;;;;5015509;28;20104;-76
2022/05/08 03:28:41;;;;;;;13.80;3.70;;;8.30;99.90;;;;;;5033766;28;20095;-76
2022/05/08 03:31:08;;;;;;;10.98;2.80;;;8.30;99.90;;;;;;5001321;28;20025;-76
2022/05/08 03:33:36;;;;;;;14.20;3.40;;;8.30;99.90;;;;;;5033799;28;20037;-76
2022/05/08 03:36:03;;;;;;;10.60;3.20;;;8.30;99.90;;;;;;5018853;28;20503;-74
2022/05/08 03:38:30;;;;;;;9.80;3.25;;;8.20;99.90;;;;;;5018254;28;20038;-75
2022/05/08 03:40:56;;;;;;;11.40;3.25;;;8.20;99.90;;;;;;5039153;28;20029;-76
2022/05/08 03:43:22;;;;;;;17.52;4.18;;;8.10;99.90;;;;;;5036124;28;20028;-76
2022/05/08 03:45:49;;;;;;;14.55;3.72;;;8.00;99.90;;;;;;5016315;28;20414;-76
2022/05/08 03:48:20;;;;;;;11.90;3.13;;;7.90;99.90;;;;;;5018232;28;20060;-76
2022/05/08 03:50:46;;;;;;;12.55;3.33;;;7.80;99.90;;;;;;5017466;28;20080;-74
2022/05/08 03:53:12;;;;;;;15.35;3.60;;;7.80;99.90;;;;;;5000308;28;20088;-74
2022/05/08 03:55:38;;;;;;;16.60;3.83;;;7.80;99.90;;;;;;5002175;28;20025;-76
2022/05/08 03:58:04;;;;;;;10.27;2.97;;;7.80;99.90;;;;;;5021733;28;20606;-78
2022/05/08 04:00:31;;;;;;;9.02;3.58;;;7.90;99.90;;;;;;5035425;28;20040;-76
2022/05/08 04:02:59;;;;;;;12.48;3.50;;;7.90;99.90;;;;;;5020067;28;20032;-76
2022/05/08 04:05:24;;;;;;;16.75;3.20;;;7.90;99.90;;;;;;5013700;28;20114;-73
2022/05/08 04:07:50;;;;;;;12.52;3.22;;;8.00;99.90;;;;;;5036059;28;20497;-74
2022/05/08 04:10:16;;;;;;;11.93;3.40;;;7.90;99.90;;;;;;5016154;28;20056;-74
2022/05/08 04:12:46;;;;;;;14.57;3.58;;;7.90;99.90;;;;;;5032466;28;20615;-75
2022/05/08 04:17:56;;;;;;;10.32;2.80;;;7.90;99.90;;;;;;5034907;28;20029;-74
2022/05/08 04:20:22;;;;;;;9.52;3.08;;;7.90;99.90;;;;;;5013159;28;20552;-76
2022/05/08 04:25:32;;;;;;;12.10;3.20;;;7.90;99.90;;;;;;5032414;28;20025;-77
2022/05/08 04:27:58;;;;;;;9.40;3.47;;;8.00;99.90;;;;;;5034105;28;20040;-76
2022/05/08 04:30:24;;;;;;;10.60;2.67;;;8.00;99.90;;;;;;5016489;28;20080;-77
2022/05/08 04:32:49;;;;;;;11.82;3.17;;;8.10;99.90;;;;;;5013772;28;20044;-75
2022/05/08 04:35:15;;;;;;;10.77;3.20;;;8.10;99.90;;;;;;5034257;28;20033;-74
2022/05/08 04:37:41;;;;;;;11.98;3.22;;;8.20;99.90;;;;;;5017406;28;20037;-74
2022/05/08 04:40:07;;;;;;;13.23;3.33;;;8.20;99.90;;;;;;5015354;28;20484;-74
2022/05/08 04:42:33;;;;;;;12.05;3.35;;;8.30;99.90;;;;;;5016483;28;20022;-75
2022/05/08 04:44:59;;;;;;;14.57;2.90;;;8.30;99.90;;;;;;5013418;28;20086;-78
2022/05/08 04:47:26;;;;;;;11.90;2.65;;;8.40;99.90;;;;;;5017605;28;20548;-76
2022/05/08 04:49:51;;;;;;;14.13;2.58;;;8.50;99.90;;;;;;5015054;28;20029;-74
2022/05/08 04:52:17;;;;;;;9.02;2.35;;;8.50;99.90;;;;;;5016013;28;20029;-73
2022/05/08 04:54:43;;;;;;;12.88;3.30;;;8.50;99.90;;;;;;5035580;28;20408;-75
2022/05/08 04:57:10;;;;;;;10.90;3.25;;;8.60;99.90;;;;;;5000945;28;20037;-79
2022/05/08 04:59:35;;;;;;;11.30;2.20;;;8.60;99.90;;;;;;5036926;28;20037;-77
2022/05/08 05:02:02;;;;;;;12.38;2.42;;;8.70;99.90;;;;;;5038658;28;20026;-77
2022/05/08 05:04:28;;;;;;;12.32;2.83;;;8.70;99.90;;;;;;5033040;28;20033;-74
2022/05/08 05:06:54;;;;;;;9.48;2.35;;;8.80;99.90;;;;;;5018545;28;20025;-74
2022/05/08 05:09:20;;;;;;;15.77;2.50;;;8.80;99.90;;;;;;5016283;28;20564;-74
2022/05/08 05:11:46;;;;;;;13.60;2.42;;;8.90;99.90;;;;;;5032529;28;20096;-74
2022/05/08 05:14:12;;;;;;;11.48;2.28;;;8.90;99.90;;;;;;5007840;28;20064;-76
2022/05/08 05:16:39;;;;;;;7.40;2.17;;;9.00;99.90;;;;;;5022566;28;21522;-75
2022/05/08 05:19:04;;;;;;;11.55;2.33;;;9.00;99.90;;;;;;5036910;28;20032;-75
2022/05/08 05:21:31;;;;;;;10.65;2.55;;;9.10;99.90;;;;;;5036682;28;20765;-76
2022/05/08 05:23:56;;;;;;;13.35;2.75;;;9.20;99.90;;;;;;5038532;28;20285;-75
2022/05/08 05:26:22;;;;;;;12.65;2.30;;;9.20;99.90;;;;;;5011419;28;20028;-72
2022/05/08 05:28:48;;;;;;;14.15;2.67;;;9.20;99.90;;;;;;5032029;28;20029;-73
2022/05/08 05:31:14;;;;;;;14.60;2.92;;;9.30;99.90;;;;;;5036179;28;20131;-73
2022/05/08 05:33:39;;;;;;;16.58;2.75;;;9.30;99.90;;;;;;5036578;28;21633;-77
2022/05/08 05:36:06;;;;;;;10.35;2.10;;;9.30;99.90;;;;;;5036127;28;20155;-73
2022/05/08 05:38:34;;;;;;;11.07;2.45;;;9.40;99.90;;;;;;5002357;28;20053;-76
2022/05/08 05:41:00;;;;;;;11.65;2.60;;;9.40;99.90;;;;;;5019036;28;20358;-76
2022/05/08 05:43:26;;;;;;;14.35;2.78;;;9.40;99.90;;;;;;5037871;28;20055;-74
2022/05/08 05:47:49;;;;;;;10.52;2.83;;;9.50;99.90;;;;;;5017508;28;20375;-75
2022/05/08 05:48:37;;;;;;;10.15;2.45;;;9.50;99.90;;;;;;5035179;28;20037;-74
2022/05/08 05:51:04;;;;;;;9.55;2.15;;;9.50;99.90;;;;;;5038013;28;20094;-76
2022/05/08 05:53:31;;;;;;;8.27;2.50;;;9.60;99.90;;;;;;5017072;28;20034;-76
2022/05/08 05:55:59;;;;;;;11.07;2.53;;;9.60;99.90;;;;;;5018562;28;20041;-73
2022/05/08 05:58:25;;;;;;;11.43;2.72;;;9.70;99.90;;;;;;5017067;28;20130;-75
2022/05/08 06:00:51;;;;;;;13.20;2.38;;;9.70;99.90;;;;;;5018682;28;20955;-77
2022/05/08 06:03:17;;;;;;;10.00;2.38;;;9.80;99.90;;;;;;5018878;28;20057;-74
2022/05/08 06:05:43;;;;;;;14.60;3.08;;;9.80;99.90;;;;;;4997853;28;20503;-75
2022/05/08 06:08:09;;;;;;;15.88;2.70;;;9.90;99.90;;;;;;5009123;28;20029;-75
2022/05/08 06:10:36;;;;;;;13.10;2.45;;;10.00;99.90;;;;;;5033930;28;21816;-77
2022/05/08 06:13:02;;;;;;;10.43;2.90;;;10.00;99.90;;;;;;5004597;28;20863;-74
2022/05/08 06:15:28;;;;;;;11.00;2.33;;;10.10;99.90;;;;;;5036420;28;20053;-76
2022/05/08 06:17:55;;;;;;;15.35;2.58;;;10.10;99.90;;;;;;5021761;28;20041;-77
2022/05/08 06:20:21;;;;;;;12.35;2.38;;;10.20;99.90;;;;;;5001808;28;20022;-76
2022/05/08 06:22:47;;;;;;;16.45;3.03;;;10.20;99.90;;;;;;5019223;28;20037;-73
2022/05/08 06:25:12;;;;;;;15.43;2.40;;;10.20;99.90;;;;;;5003011;28;20108;-78
2022/05/08 06:27:39;;;;;;;10.63;2.47;;;10.30;99.90;;;;;;5020251;28;20029;-78
2022/05/08 06:30:06;;;;;;;12.20;2.72;;;10.30;99.90;;;;;;5022903;28;20037;-78
2022/05/08 06:32:34;;;;;;;16.02;2.80;;;10.30;99.90;;;;;;5005011;28;20033;-75
2022/05/08 06:34:59;;;;;;;12.07;2.50;;;10.30;99.90;;;;;;5022496;28;20620;-77
2022/05/08 06:37:25;;;;;;;16.63;2.85;;;10.30;99.90;;;;;;5009367;28;20029;-75
2022/05/08 06:39:51;;;;;;;15.40;3.20;;;10.40;99.90;;;;;;5004528;28;20447;-76
2022/05/08 06:42:16;;;;;;;17.83;2.95;;;10.40;99.90;;;;;;5021831;28;20029;-75
2022/05/08 06:44:43;;;;;;;14.20;2.60;;;10.40;99.90;;;;;;5035164;28;20095;-75
2022/05/08 06:47:09;;;;;;;15.10;2.70;;;10.50;99.80;;;;;;5020020;28;20116;-74
2022/05/08 06:49:34;;;;;;;16.67;2.97;;;10.40;99.60;;;;;;5003210;28;20159;-73
2022/05/08 06:52:00;;;;;;;15.73;2.97;;;10.40;99.60;;;;;;5033054;28;20092;-77
2022/05/08 06:54:26;;;;;;;18.58;2.42;;;10.40;99.40;;;;;;5011498;28;20033;-75
2022/05/08 06:56:53;;;;;;;13.07;2.63;;;10.40;99.20;;;;;;5028013;28;20036;-74
2022/05/08 07:02:04;;;;;;;14.40;2.50;;;10.60;99.30;;;;;;5033194;28;20108;-74
2022/05/08 07:04:29;;;;;;;10.38;2.55;;;10.70;99.10;;;;;;5041225;28;20029;-74
2022/05/08 07:06:55;;;;;;;15.23;3.45;;;10.70;98.90;;;;;;5001585;28;20040;-73
2022/05/08 07:09:21;;;;;;;12.52;2.67;;;10.70;99.10;;;;;;5033429;28;20033;-72
2022/05/08 07:11:49;;;;;;;11.95;2.83;;;10.80;98.80;;;;;;5017945;28;20041;-75
2022/05/08 07:14:16;;;;;;;11.10;2.40;;;10.90;98.60;;;;;;5033505;28;20557;-73
2022/05/08 07:16:42;;;;;;;13.65;2.65;;;10.90;98.50;;;;;;5036193;28;20033;-73
2022/05/08 07:19:08;;;;;;;9.93;2.55;;;10.90;98.30;;;;;;5005866;28;20473;-75
2022/05/08 07:21:33;;;;;;;19.33;3.13;;;11.00;98.10;;;;;;5033505;28;20029;-73
2022/05/08 07:23:59;;;;;;;12.90;2.65;;;11.00;97.70;;;;;;5018262;28;20032;-75
2022/05/08 07:26:25;;;;;;;14.60;3.45;;;11.10;97.50;;;;;;5017019;28;20029;-75
2022/05/08 07:28:50;;;;;;;10.30;2.30;;;11.10;97.60;;;;;;5017093;28;20175;-74
2022/05/08 07:31:17;;;;;;;12.43;2.72;;;11.10;97.50;;;;;;5016987;28;20372;-74
2022/05/08 07:33:42;;;;;;;13.68;2.33;;;11.10;97.10;;;;;;5015920;28;20396;-74
2022/05/08 07:36:14;;;;;;;11.43;2.58;;;11.20;96.70;;;;;;4995127;28;20094;-74
2022/05/08 07:38:46;;;;;;;11.40;2.60;;;11.20;96.90;;;;;;5012916;28;20033;-73
2022/05/08 07:41:17;;;;;;;12.65;2.95;;;11.30;96.90;;;;;;5012560;28;20124;-74
2022/05/08 07:43:45;;;;;;;13.70;3.17;;;11.30;96.40;;;;;;5019130;28;20622;-75
2022/05/08 07:46:11;;;;;;;10.05;2.28;;;11.40;95.90;;;;;;5034131;28;20033;-74
2022/05/08 07:48:37;;;;;;;12.73;2.42;;;11.50;96.20;;;;;;5028477;28;20041;-75
2022/05/08 07:51:03;;;;;;;11.13;3.00;;;11.50;96.20;;;;;;5036933;28;20094;-76
2022/05/08 07:53:32;;;;;;;16.55;3.22;;;11.60;96.20;;;;;;5019519;28;20104;-76
2022/05/08 07:55:59;;;;;;;10.80;2.08;;;11.50;96.20;;;;;;5014080;28;20036;-77
2022/05/08 07:58:31;;;;;;;10.73;2.50;;;11.60;96.40;;;;;;5015480;28;20523;-75
2022/05/08 08:00:57;;;;;;;13.70;3.15;;;11.60;96.20;;;;;;5035102;28;20074;-76
2022/05/08 08:03:24;;;;;;;12.80;3.33;;;11.70;96.00;;;;;;5007956;28;20071;-77
2022/05/08 08:05:50;;;;;;;13.65;2.90;;;11.80;96.00;;;;;;5012082;28;20028;-78
2022/05/08 08:08:17;;;;;;;10.50;2.50;;;11.80;95.60;;;;;;5004747;28;20031;-75
2022/05/08 08:10:44;;;;;;;10.80;2.75;;;11.80;94.80;;;;;;5032250;28;20129;-76
2022/05/08 08:13:10;;;;;;;10.82;2.97;;;11.80;94.90;;;;;;5030081;28;20033;-74
2022/05/08 08:15:36;;;;;;;8.88;2.50;;;11.90;94.90;;;;;;5014304;28;20085;-76
2022/05/08 08:18:05;;;;;;;13.70;2.53;;;11.90;95.00;;;;;;4996773;28;20111;-77
2022/05/08 08:20:31;;;;;;;10.02;2.65;;;11.90;94.90;;;;;;5018233;28;20730;-75
2022/05/08 08:22:57;;;;;;;17.13;3.25;;;12.10;94.40;;;;;;5017381;28;20499;-76
2022/05/08 08:25:23;;;;;;;9.85;3.25;;;12.10;94.10;;;;;;5009261;28;20584;-75
2022/05/08 08:27:48;;;;;;;19.67;3.78;;;12.10;93.90;;;;;;5017700;28;20037;-75
2022/05/08 08:30:14;;;;;;;12.25;2.85;;;12.10;94.10;;;;;;4996503;28;20463;-74
2022/05/08 08:32:40;;;;;;;12.48;3.22;;;12.20;94.40;;;;;;5007078;28;20078;-75
2022/05/08 08:35:06;;;;;;;13.75;2.97;;;12.20;94.60;;;;;;5034066;28;20037;-73
2022/05/08 08:37:32;;;;;;;11.85;2.67;;;12.30;94.60;;;;;;5005217;28;20037;-77
2022/05/08 08:39:57;;;;;;;9.70;2.58;;;12.40;94.30;;;;;;5038784;28;20032;-73
2022/05/08 08:42:29;;;;;;;18.17;3.28;;;12.50;93.70;;;;;;5030976;28;20087;-74
2022/05/08 08:48:08;;;;;;;10.65;2.70;;;12.60;92.90;;;;;;5030689;28;20400;-75
2022/05/08 08:50:35;;;;;;;7.47;1.92;;;12.60;92.60;;;;;;5030323;28;20087;-73
2022/05/08 08:53:05;;;;;;;12.80;2.63;;;12.60;92.80;;;;;;5034289;28;20079;-75
2022/05/08 08:55:32;;;;;;;13.55;2.78;;;12.70;92.60;;;;;;5036733;28;20041;-74
2022/05/08 08:57:58;;;;;;;12.48;3.20;;;12.80;93.00;;;;;;5025512;28;20040;-74
2022/05/08 09:00:24;;;;;;;13.02;2.60;;;12.90;92.90;;;;;;5018343;28;20048;-74
2022/05/08 09:02:53;;;;;;;10.35;2.50;;;13.00;92.00;;;;;;5032097;28;20064;-73
2022/05/08 09:05:19;;;;;;;11.68;3.60;;;13.00;91.70;;;;;;5029098;28;20061;-74
2022/05/08 09:07:49;;;;;;;12.48;2.35;;;13.00;91.60;;;;;;5014627;28;20049;-76
2022/05/08 09:10:22;;;;;;;11.35;2.58;;;13.10;91.70;;;;;;5015341;28;20060;-76
2022/05/08 09:12:51;;;;;;;11.15;2.55;;;13.10;91.60;;;;;;5013438;28;20055;-74
2022/05/08 09:15:21;;;;;;;10.23;2.63;;;13.10;91.60;;;;;;5015474;28;20539;-74
2022/05/08 09:17:49;;;;;;;11.18;2.67;;;13.10;91.50;;;;;;5033763;28;20033;-74
2022/05/08 09:20:29;;;;;;;9.60;2.40;;;13.20;91.00;;;;;;5033621;28;20020;-77
2022/05/08 09:23:08;;;;;;;11.93;2.78;;;13.30;90.60;;;;;;5034417;28;20025;-76
2022/05/08 09:25:47;;;;;;;10.90;2.72;;;13.30;90.90;;;;;;5033916;28;20025;-74
2022/05/08 09:28:18;;;;;;;11.60;3.33;;;13.40;91.00;;;;;;4992649;28;20052;-76
2022/05/08 09:31:01;;;;;;;17.23;3.47;;;13.30;91.20;;;;;;4993382;28;20107;-73
2022/05/08 09:33:33;;;;;;;13.88;3.08;;;13.40;91.80;;;;;;5020222;28;20060;-74
2022/05/08 09:36:01;;;;;;;16.38;3.15;;;13.50;91.40;;;;;;5006570;28;20120;-77
2022/05/08 09:38:53;;;;;;;10.77;2.78;;;13.70;91.10;;;;;;5008526;28;20108;-74
2022/05/08 09:41:21;;;;;;;11.65;2.80;;;13.70;90.40;;;;;;4991308;28;20045;-77
2022/05/08 09:43:48;;;;;;;13.50;2.85;;;13.70;90.70;;;;;;4990393;28;20179;-72
2022/05/08 09:46:14;;;;;;;10.35;2.70;;;13.70;90.80;;;;;;4999752;28;20029;-75
2022/05/08 09:48:39;;;;;;;11.05;3.38;;;13.70;90.80;;;;;;5020228;28;20120;-74
2022/05/08 09:51:08;;;;;;;9.15;2.75;;;13.70;90.30;;;;;;5021183;28;20038;-73
2022/05/08 09:53:35;;;;;;;7.90;2.42;;;13.80;90.20;;;;;;5035542;28;20067;-78
2022/05/08 09:56:04;;;;;;;10.85;3.30;;;13.80;89.80;;;;;;5013859;28;20064;-75
2022/05/08 09:58:31;;;;;;;8.35;2.60;;;13.90;88.60;;;;;;5013526;28;20056;-76
2022/05/08 10:00:57;;;;;;;12.00;2.72;;;14.00;88.50;;;;;;5019180;28;20021;-74
2022/05/08 10:03:24;;;;;;;9.07;2.80;;;14.00;88.40;;;;;;5039015;28;20029;-75
2022/05/08 10:05:52;;;;;;;12.43;2.70;;;14.00;87.90;;;;;;5017727;28;20049;-74
2022/05/08 10:08:23;;;;;;;9.82;3.22;;;14.00;86.30;;;;;;5036286;28;20551;-75
2022/05/08 10:13:57;;;;;;;8.85;2.28;;;14.00;86.50;;;;;;4999637;28;20119;-75
2022/05/08 10:16:41;;;;;;;12.05;2.80;;;14.10;83.70;;;;;;5014940;28;20103;-75
2022/05/08 10:19:19;;;;;;;10.63;2.88;;;14.10;84.40;;;;;;5034934;28;20528;-75
2022/05/08 10:22:09;;;;;;;11.45;3.05;;;14.00;85.50;;;;;;5015531;28;20493;-73
2022/05/08 10:24:41;;;;;;;11.90;2.85;;;14.10;85.10;;;;;;5039450;28;20056;-73
2022/05/08 10:27:23;;;;;;;14.55;3.47;;;14.20;86.00;;;;;;5018377;28;20108;-74
2022/05/08 10:29:52;;;;;;;11.45;3.45;;;14.30;85.80;;;;;;5017757;28;20512;-75
2022/05/08 10:32:33;;;;;;;10.55;3.28;;;14.30;84.30;;;;;;5013759;28;20056;-74
2022/05/08 10:35:25;;;;;;;12.53;3.23;;;14.50;85.20;;;;;;5036134;28;20037;-74
2022/05/08 10:38:03;;;;;;;9.63;3.50;;;14.60;85.30;;;;;;5034943;28;20459;-73
2022/05/08 10:40:28;;;;;;;13.38;3.40;;;14.60;86.00;;;;;;5034156;28;20095;-73
2022/05/08 10:42:55;;;;;;;11.77;3.00;;;14.60;85.20;;;;;;5034912;28;20607;-75
2022/05/08 10:45:30;;;;;;;9.63;2.35;;;14.60;85.50;;;;;;5015667;28;20021;-75
2022/05/08 10:47:56;;;;;;;13.90;3.60;;;14.60;86.50;;;;;;5016846;28;20033;-72
2022/05/08 10:50:22;;;;;;;10.90;2.97;;;14.80;85.60;;;;;;5017793;28;20045;-75
2022/05/08 10:52:48;;;;;;;10.48;3.60;;;14.90;85.30;;;;;;5017216;28;20441;-73
2022/05/08 10:55:15;;;;;;;10.90;3.92;;;15.00;84.00;;;;;;5037241;28;20045;-75
2022/05/08 10:57:43;;;;;;;12.80;3.45;;;15.10;83.70;;;;;;5013674;28;20030;-74
2022/05/08 11:00:14;;;;;;;11.60;3.78;;;15.10;84.30;;;;;;5016865;28;20029;-73
2022/05/08 11:02:40;;;;;;;15.43;4.70;;;15.30;83.80;;;;;;5018539;28;20481;-74
2022/05/08 11:05:10;;;;;;;10.55;3.38;;;15.50;83.20;;;;;;5017697;28;20512;-70
2022/05/08 11:07:47;;;;;;;13.75;3.25;;;15.70;82.70;;;;;;5034724;28;20071;-71
2022/05/08 11:10:15;;;;;;;13.35;3.90;;;16.20;81.00;;;;;;5013613;28;20064;-70
2022/05/08 11:13:02;;;;;;;16.27;3.13;;;17.30;79.30;;;;;;5029766;28;20025;-74
2022/05/08 11:15:30;;;;;;;12.88;3.70;;;19.00;77.60;;;;;;5038262;28;20515;-71
2022/05/08 11:18:09;;;;;;;11.25;3.15;;;21.10;73.10;;;;;;5017846;28;20025;-75
2022/05/08 11:20:48;;;;;;;14.23;3.58;;;22.80;64.20;;;;;;5030390;28;21112;-74
2022/05/08 11:23:18;;;;;;;11.25;3.38;;;24.40;59.90;;;;;;5014727;28;20033;-72
2022/05/08 11:25:50;;;;;;;8.50;2.83;;;25.90;54.10;;;;;;5031037;28;20033;-75
2022/05/08 11:28:18;;;;;;;11.32;3.67;;;27.30;50.20;;;;;;5020832;28;20373;-76
2022/05/08 11:30:46;;;;;;;9.68;2.85;;;27.20;47.00;;;;;;5028578;28;20041;-74
2022/05/08 11:36:06;;;;;;;8.57;3.17;;;29.90;44.90;;;;;;5031498;28;20404;-74
2022/05/08 11:38:39;;;;;;;9.20;2.85;;;30.20;42.60;;;;;;5027476;28;20132;-72
2022/05/08 11:41:07;;;;;;;11.68;3.55;;;31.00;40.70;;;;;;5012708;28;20032;-73
2022/05/08 11:43:57;;;;;;;9.57;3.30;;;30.60;40.60;;;;;;5010710;28;20033;-74
2022/05/08 11:46:36;;;;;;;6.63;3.20;;;30.30;40.20;;;;;;5012979;28;20041;-73
2022/05/08 11:49:24;;;;;;;10.10;3.47;;;29.80;39.90;;;;;;5015372;28;20045;-74
2022/05/08 11:51:56;;;;;;;8.88;2.92;;;28.80;39.90;;;;;;5016007;28;20026;-76
2022/05/08 11:54:40;;;;;;;9.35;3.03;;;28.00;42.20;;;;;;5014380;28;20048;-74
2022/05/08 11:57:18;;;;;;;9.90;3.40;;;27.50;41.60;;;;;;5033243;28;20068;-74
2022/05/08 12:00:04;;;;;;;9.93;3.42;;;26.80;42.20;;;;;;5013820;28;20047;-73
2022/05/08 12:02:44;;;;;;;7.25;3.03;;;26.70;45.10;;;;;;5031039;28;20029;-73
2022/05/08 12:05:21;;;;;;;11.30;3.20;;;26.80;44.50;;;;;;5015516;28;20056;-72
2022/05/08 12:07:48;;;;;;;9.15;3.03;;;26.90;43.60;;;;;;5021579;28;20383;-75
2022/05/08 12:10:15;;;;;;;8.70;3.05;;;27.20;44.00;;;;;;5039484;28;20025;-73
2022/05/08 12:12:42;;;;;;;11.60;2.95;;;26.30;43.20;;;;;;5029970;28;20508;-74
2022/05/08 12:15:08;;;;;;;8.77;3.25;;;27.00;44.20;;;;;;5013014;28;20425;-73
2022/05/08 12:17:43;;;;;;;8.10;3.10;;;27.50;42.90;;;;;;5013090;28;20045;-75
2022/05/08 12:20:28;;;;;;;8.68;2.67;;;28.00;43.20;;;;;;5013070;28;20472;-75
2022/05/08 12:23:05;;;;;;;10.25;4.00;;;27.90;42.20;;;;;;5028586;28;20037;-73
2022/05/08 12:25:40;;;;;;;8.70;2.78;;;27.70;41.60;;;;;;5029890;28;20139;-71
2022/05/08 12:28:06;;;;;;;7.43;2.55;;;27.90;42.40;;;;;;5011626;28;20041;-72
2022/05/08 12:30:35;;;;;;;10.73;3.28;;;28.10;40.30;;;;;;5032970;28;20037;-74
2022/05/08 12:33:01;;;;;;;8.75;2.88;;;27.90;40.60;;;;;;5029698;28;20099;-74
2022/05/08 12:35:27;;;;;;;12.07;2.97;;;28.20;40.20;;;;;;5030815;28;20497;-71
2022/05/08 12:37:53;;;;;;;7.32;2.53;;;28.50;40.40;;;;;;5010779;28;20655;-72
2022/05/08 12:40:19;;;;;;;7.47;2.80;;;28.90;40.60;;;;;;5028854;28;20037;-73
2022/05/08 12:42:46;;;;;;;11.23;2.28;;;29.20;39.30;;;;;;5013579;28;20671;-73
2022/05/08 12:45:12;;;;;;;6.75;2.67;;;29.00;39.80;;;;;;5014459;28;20112;-72
2022/05/08 12:47:38;;;;;;;7.78;3.03;;;29.70;39.10;;;;;;5013989;28;20057;-73
2022/05/08 12:50:06;;;;;;;6.97;2.90;;;30.10;38.40;;;;;;5016058;28;20052;-73
2022/05/08 12:52:31;;;;;;;10.05;3.30;;;30.60;38.10;;;;;;5027854;28;20029;-73
2022/05/08 12:54:57;;;;;;;10.57;2.90;;;30.70;37.60;;;;;;5015340;28;20026;-72
2022/05/08 13:00:09;;;;;;;6.50;2.88;;;31.00;36.80;;;;;;5030389;28;20039;-76
2022/05/08 13:02:35;;;;;;;11.20;2.90;;;31.60;36.20;;;;;;5031200;28;20116;-73
2022/05/08 13:05:01;;;;;;;7.88;2.55;;;32.10;34.80;;;;;;5028734;28;20766;-72
2022/05/08 13:07:30;;;;;;;11.73;3.55;;;32.10;35.10;;;;;;5015012;28;20044;-72
2022/05/08 13:09:55;;;;;;;7.30;2.50;;;31.90;34.20;;;;;;5031065;28;20033;-74
2022/05/08 13:12:21;;;;;;;10.35;3.28;;;31.80;35.50;;;;;;5015911;28;20037;-72